sensor_id;sensor_type;location;lat;lon;timestamp;temperature;humidity
30336;DHT22;17142;47.990;7.846;2023-02-15T05:27:49;-1.10;99.90
30336;DHT22;17142;47.990;7.846;2023-02-15T05:30:33;-1.20;99.90
30336;DHT22;17142;47.990;7.846;2023-02-15T05:33:00;-1.30;99.90
30336;DHT22;17142;47.990;7.846;2023-02-15T05:35:27;-1.40;99.90
30336;DHT22;17142;47.990;7.846;2023-02-15T05:37:57;-1.50;99.90
30336;DHT22;17142;47.990;7.846;2023-02-15T05:40:23;-1.60;99.90
30336;DHT22;17142;47.990;7.846;2023-02-15T05:42:49;-1.70;99.90
30336;DHT22;17142;47.990;7.846;2023-02-15T05:45:15;-1.70;99.90
30336;DHT22;17142;47.990;7.846;2023-02-15T05:47:43;-1.70;99.90
30336;DHT22;17142;47.990;7.846;2023-02-15T05:50:11;-1.70;99.90
30336;DHT22;17142;47.990;7.846;2023-02-15T05:52:37;-1.70;99.90
30336;DHT22;17142;47.990;7.846;2023-02-15T05:55:05;-1.80;99.90
30336;DHT22;17142;47.990;7.846;2023-02-15T05:57:35;-1.90;99.90
30336;DHT22;17142;47.990;7.846;2023-02-15T06:00:01;-1.90;99.90
30336;DHT22;17142;47.990;7.846;2023-02-15T06:02:29;-1.90;99.90
30336;DHT22;17142;47.990;7.846;2023-02-15T06:04:55;-1.90;99.90
30336;DHT22;17142;47.990;7.846;2023-02-15T06:07:21;-2.00;99.90
30336;DHT22;17142;47.990;7.846;2023-02-15T06:09:48;-2.00;99.90
30336;DHT22;17142;47.990;7.846;2023-02-15T06:12:14;-2.00;99.90
30336;DHT22;17142;47.990;7.846;2023-02-15T06:14:39;-1.90;99.90
30336;DHT22;17142;47.990;7.846;2023-02-15T06:17:05;-2.00;99.90
30336;DHT22;17142;47.990;7.846;2023-02-15T06:19:31;-2.00;99.90
30336;DHT22;17142;47.990;7.846;2023-02-15T06:21:57;-2.00;99.90
30336;DHT22;17142;47.990;7.846;2023-02-15T06:24:23;-2.00;99.90
30336;DHT22;17142;47.990;7.846;2023-02-15T06:26:51;-2.00;99.90
30336;DHT22;17142;47.990;7.846;2023-02-15T06:29:16;-2.00;99.90
30336;DHT22;17142;47.990;7.846;2023-02-15T06:31:44;-2.00;99.90
30336;DHT22;17142;47.990;7.846;2023-02-15T06:34:10;-2.00;99.90
30336;DHT22;17142;47.990;7.846;2023-02-15T06:36:38;-2.00;99.90
30336;DHT22;17142;47.990;7.846;2023-02-15T06:39:03;-2.00;99.90
30336;DHT22;17142;47.990;7.846;2023-02-15T06:41:29;-1.90;99.90
30336;DHT22;17142;47.990;7.846;2023-02-15T06:43:55;-1.90;99.90
30336;DHT22;17142;47.990;7.846;2023-02-15T06:46:21;-1.90;99.90
30336;DHT22;17142;47.990;7.846;2023-02-15T06:48:46;-1.90;99.90
30336;DHT22;17142;47.990;7.846;2023-02-15T06:51:12;-1.90;99.90
30336;DHT22;17142;47.990;7.846;2023-02-15T06:53:38;-1.90;99.90
30336;DHT22;17142;47.990;7.846;2023-02-15T06:56:07;-1.90;99.90
30336;DHT22;17142;47.990;7.846;2023-02-15T06:58:35;-1.90;99.90
30336;DHT22;17142;47.990;7.846;2023-02-15T07:01:00;-1.80;99.90
30336;DHT22;17142;47.990;7.846;2023-02-15T07:03:29;-1.70;99.90
30336;DHT22;17142;47.990;7.846;2023-02-15T07:05:56;-1.60;99.90
30336;DHT22;17142;47.990;7.846;2023-02-15T07:08:22;-1.60;99.90
30336;DHT22;17142;47.990;7.846;2023-02-15T07:10:49;-1.50;99.90
30336;DHT22;17142;47.990;7.846;2023-02-15T07:13:15;-1.30;99.90
30336;DHT22;17142;47.990;7.846;2023-02-15T07:15:41;-1.20;99.90
30336;DHT22;17142;47.990;7.846;2023-02-15T07:18:06;-1.20;99.90
30336;DHT22;17142;47.990;7.846;2023-02-15T07:20:32;-1.10;99.90
30336;DHT22;17142;47.990;7.846;2023-02-15T07:23:01;-1.10;99.90
30336;DHT22;17142;47.990;7.846;2023-02-15T07:25:27;-1.10;99.90
30336;DHT22;17142;47.990;7.846;2023-02-15T07:28:00;-1.10;99.90
30336;DHT22;17142;47.990;7.846;2023-02-15T07:30:27;-0.90;99.90
30336;DHT22;17142;47.990;7.846;2023-02-15T07:32:57;-0.70;99.90
30336;DHT22;17142;47.990;7.846;2023-02-15T07:35:48;-0.50;99.90
30336;DHT22;17142;47.990;7.846;2023-02-15T07:38:19;-0.30;99.90
30336;DHT22;17142;47.990;7.846;2023-02-15T07:40:47;0.00;99.90
30336;DHT22;17142;47.990;7.846;2023-02-15T07:43:13;0.20;99.90
30336;DHT22;17142;47.990;7.846;2023-02-15T07:45:39;0.40;99.90
30336;DHT22;17142;47.990;7.846;2023-02-15T07:48:05;0.50;99.90
30336;DHT22;17142;47.990;7.846;2023-02-15T07:50:31;0.60;99.90
30336;DHT22;17142;47.990;7.846;2023-02-15T07:52:58;0.80;99.90
30336;DHT22;17142;47.990;7.846;2023-02-15T07:55:23;0.80;99.90
30336;DHT22;17142;47.990;7.846;2023-02-15T07:57:51;0.70;99.90
30336;DHT22;17142;47.990;7.846;2023-02-15T08:00:21;0.80;99.90
30336;DHT22;17142;47.990;7.846;2023-02-15T08:02:54;0.70;99.90
30336;DHT22;17142;47.990;7.846;2023-02-15T08:05:39;0.60;99.90
30336;DHT22;17142;47.990;7.846;2023-02-15T08:08:07;0.60;99.90
30336;DHT22;17142;47.990;7.846;2023-02-15T08:10:33;0.50;99.90
30336;DHT22;17142;47.990;7.846;2023-02-15T08:13:18;0.50;99.90
30336;DHT22;17142;47.990;7.846;2023-02-15T08:15:50;0.60;99.90
30336;DHT22;17142;47.990;7.846;2023-02-15T08:18:16;0.70;99.90
30336;DHT22;17142;47.990;7.846;2023-02-15T08:20:41;1.00;99.90
30336;DHT22;17142;47.990;7.846;2023-02-15T08:23:09;1.20;99.90
30336;DHT22;17142;47.990;7.846;2023-02-15T08:25:37;1.50;99.90
30336;DHT22;17142;47.990;7.846;2023-02-15T08:28:05;1.60;99.90
30336;DHT22;17142;47.990;7.846;2023-02-15T08:30:33;1.70;99.90
30336;DHT22;17142;47.990;7.846;2023-02-15T08:32:59;1.60;99.90
30336;DHT22;17142;47.990;7.846;2023-02-15T08:35:26;1.50;99.90
30336;DHT22;17142;47.990;7.846;2023-02-15T08:37:52;1.50;99.90
30336;DHT22;17142;47.990;7.846;2023-02-15T08:40:18;1.50;99.90
30336;DHT22;17142;47.990;7.846;2023-02-15T08:42:44;1.50;99.90
30336;DHT22;17142;47.990;7.846;2023-02-15T08:45:12;1.40;99.90
30336;DHT22;17142;47.990;7.846;2023-02-15T08:47:40;1.30;99.90
30336;DHT22;17142;47.990;7.846;2023-02-15T08:50:05;1.20;99.90
30336;DHT22;17142;47.990;7.846;2023-02-15T08:52:31;1.20;99.90
30336;DHT22;17142;47.990;7.846;2023-02-15T08:54:57;1.20;99.90
30336;DHT22;17142;47.990;7.846;2023-02-15T08:57:25;1.20;99.90
30336;DHT22;17142;47.990;7.846;2023-02-15T08:59:50;1.30;99.90
30336;DHT22;17142;47.990;7.846;2023-02-15T09:02:16;1.40;99.90
30336;DHT22;17142;47.990;7.846;2023-02-15T09:04:42;1.50;99.90
30336;DHT22;17142;47.990;7.846;2023-02-15T09:07:07;1.60;99.90
30336;DHT22;17142;47.990;7.846;2023-02-15T09:09:33;1.70;99.90
30336;DHT22;17142;47.990;7.846;2023-02-15T09:12:02;1.80;99.90
30336;DHT22;17142;47.990;7.846;2023-02-15T09:14:27;1.90;99.90
30336;DHT22;17142;47.990;7.846;2023-02-15T09:16:53;2.00;99.90
30336;DHT22;17142;47.990;7.846;2023-02-15T09:19:20;2.20;99.90
30336;DHT22;17142;47.990;7.846;2023-02-15T09:21:48;2.30;99.90
30336;DHT22;17142;47.990;7.846;2023-02-15T09:24:15;2.20;99.90
30336;DHT22;17142;47.990;7.846;2023-02-15T09:26:44;2.20;99.90
30336;DHT22;17142;47.990;7.846;2023-02-15T09:29:11;2.20;99.90
30336;DHT22;17142;47.990;7.846;2023-02-15T09:31:40;2.30;99.90
30336;DHT22;17142;47.990;7.846;2023-02-15T09:34:09;2.40;99.90
30336;DHT22;17142;47.990;7.846;2023-02-15T09:36:37;2.60;99.90
30336;DHT22;17142;47.990;7.846;2023-02-15T10:00:26;2.90;99.90
30336;DHT22;17142;47.990;7.846;2023-02-15T10:20:17;2.80;99.90
30336;DHT22;17142;47.990;7.846;2023-02-15T10:28:06;2.40;99.90
30336;DHT22;17142;47.990;7.846;2023-02-15T10:30:46;2.20;99.90
30336;DHT22;17142;47.990;7.846;2023-02-15T10:33:27;2.00;99.90
30336;DHT22;17142;47.990;7.846;2023-02-15T10:41:17;2.00;99.90
30336;DHT22;17142;47.990;7.846;2023-02-15T10:54:59;2.50;99.90
30336;DHT22;17142;47.990;7.846;2023-02-15T10:58:06;2.60;99.90
30336;DHT22;17142;47.990;7.846;2023-02-15T11:04:00;2.70;99.90
30336;DHT22;17142;47.990;7.846;2023-02-15T11:06:31;2.80;99.90
30336;DHT22;17142;47.990;7.846;2023-02-15T11:09:02;2.90;99.90
30336;DHT22;17142;47.990;7.846;2023-02-15T11:11:38;3.00;99.90
30336;DHT22;17142;47.990;7.846;2023-02-15T11:17:02;3.20;99.90
30336;DHT22;17142;47.990;7.846;2023-02-15T11:19:35;3.30;99.90
30336;DHT22;17142;47.990;7.846;2023-02-15T11:22:04;3.50;99.90
30336;DHT22;17142;47.990;7.846;2023-02-15T11:24:34;3.60;99.90
30336;DHT22;17142;47.990;7.846;2023-02-15T11:27:26;3.70;99.90
30336;DHT22;17142;47.990;7.846;2023-02-15T11:30:05;3.80;99.90
30336;DHT22;17142;47.990;7.846;2023-02-15T11:32:44;3.90;99.90
30336;DHT22;17142;47.990;7.846;2023-02-15T11:37:54;4.30;99.90
30336;DHT22;17142;47.990;7.846;2023-02-15T11:43:02;4.40;99.90
30336;DHT22;17142;47.990;7.846;2023-02-15T11:45:31;4.50;99.90
30336;DHT22;17142;47.990;7.846;2023-02-15T11:47:58;4.60;99.90
30336;DHT22;17142;47.990;7.846;2023-02-15T11:50:32;4.70;99.90
30336;DHT22;17142;47.990;7.846;2023-02-15T11:53:18;4.70;99.90
30336;DHT22;17142;47.990;7.846;2023-02-15T11:55:48;4.80;99.90
30336;DHT22;17142;47.990;7.846;2023-02-15T11:58:34;4.90;99.90
30336;DHT22;17142;47.990;7.846;2023-02-15T12:01:21;4.90;99.90
30336;DHT22;17142;47.990;7.846;2023-02-15T12:07:28;5.20;99.90
30336;DHT22;17142;47.990;7.846;2023-02-15T12:12:42;5.40;99.90
30336;DHT22;17142;47.990;7.846;2023-02-15T12:15:10;5.40;99.90
30336;DHT22;17142;47.990;7.846;2023-02-15T12:20:22;5.60;99.90
30336;DHT22;17142;47.990;7.846;2023-02-15T12:23:13;5.70;99.90
30336;DHT22;17142;47.990;7.846;2023-02-15T12:25:50;5.70;99.90
30336;DHT22;17142;47.990;7.846;2023-02-15T12:28:40;5.90;99.90
30336;DHT22;17142;47.990;7.846;2023-02-15T12:31:20;5.90;99.90
30336;DHT22;17142;47.990;7.846;2023-02-15T12:33:53;6.00;99.90
30336;DHT22;17142;47.990;7.846;2023-02-15T12:36:29;6.10;99.90
30336;DHT22;17142;47.990;7.846;2023-02-15T12:44:27;6.40;99.90
30336;DHT22;17142;47.990;7.846;2023-02-15T12:47:20;6.50;99.90
30336;DHT22;17142;47.990;7.846;2023-02-15T12:52:33;6.70;99.90
30336;DHT22;17142;47.990;7.846;2023-02-15T12:55:18;6.70;99.90
30336;DHT22;17142;47.990;7.846;2023-02-15T12:57:44;6.70;99.90
30336;DHT22;17142;47.990;7.846;2023-02-15T13:02:47;6.80;99.90
30336;DHT22;17142;47.990;7.846;2023-02-15T13:05:37;6.90;99.90
30336;DHT22;17142;47.990;7.846;2023-02-15T13:10:56;7.10;99.90
30336;DHT22;17142;47.990;7.846;2023-02-15T13:13:26;7.20;99.90
30336;DHT22;17142;47.990;7.846;2023-02-15T13:15:56;7.20;99.90
30336;DHT22;17142;47.990;7.846;2023-02-15T13:18:29;7.20;99.90
30336;DHT22;17142;47.990;7.846;2023-02-15T13:20:55;7.30;99.90
30336;DHT22;17142;47.990;7.846;2023-02-15T13:23:29;7.30;99.90
30336;DHT22;17142;47.990;7.846;2023-02-15T13:25:59;7.40;99.90
30336;DHT22;17142;47.990;7.846;2023-02-15T13:28:38;7.20;99.90
30336;DHT22;17142;47.990;7.846;2023-02-15T13:31:12;7.20;99.90
30336;DHT22;17142;47.990;7.846;2023-02-15T13:33:42;7.20;99.90
30336;DHT22;17142;47.990;7.846;2023-02-15T13:36:28;7.20;99.90
30336;DHT22;17142;47.990;7.846;2023-02-15T13:41:45;7.30;99.90
30336;DHT22;17142;47.990;7.846;2023-02-15T13:52:51;7.40;99.90
30336;DHT22;17142;47.990;7.846;2023-02-15T13:55:37;7.40;99.90
30336;DHT22;17142;47.990;7.846;2023-02-15T14:03:56;7.40;99.90
30336;DHT22;17142;47.990;7.846;2023-02-15T14:22:31;7.80;99.90
30336;DHT22;17142;47.990;7.846;2023-02-15T14:25:25;7.80;99.90
30336;DHT22;17142;47.990;7.846;2023-02-15T14:28:16;7.90;99.90
30336;DHT22;17142;47.990;7.846;2023-02-15T14:30:46;8.00;99.90
30336;DHT22;17142;47.990;7.846;2023-02-15T14:35:56;8.10;99.90
30336;DHT22;17142;47.990;7.846;2023-02-15T14:41:12;8.10;99.90
30336;DHT22;17142;47.990;7.846;2023-02-15T14:49:35;8.30;99.90
30336;DHT22;17142;47.990;7.846;2023-02-15T14:52:11;8.30;99.90
30336;DHT22;17142;47.990;7.846;2023-02-15T14:59:42;8.40;99.90
30336;DHT22;17142;47.990;7.846;2023-02-15T15:05:10;8.40;99.90
30336;DHT22;17142;47.990;7.846;2023-02-15T15:07:42;8.30;99.90
30336;DHT22;17142;47.990;7.846;2023-02-15T15:12:44;8.30;99.90
30336;DHT22;17142;47.990;7.846;2023-02-15T15:15:34;8.30;99.90
30336;DHT22;17142;47.990;7.846;2023-02-15T15:18:05;8.40;99.90
30336;DHT22;17142;47.990;7.846;2023-02-15T15:20:50;8.40;99.90
30336;DHT22;17142;47.990;7.846;2023-02-15T15:26:24;8.40;99.90
30336;DHT22;17142;47.990;7.846;2023-02-15T15:40:00;8.00;99.90
30336;DHT22;17142;47.990;7.846;2023-02-15T15:50:41;7.60;99.90
30336;DHT22;17142;47.990;7.846;2023-02-15T15:53:20;7.50;99.90
30336;DHT22;17142;47.990;7.846;2023-02-15T15:55:49;7.40;99.90
30336;DHT22;17142;47.990;7.846;2023-02-15T15:58:17;7.40;99.90
30336;DHT22;17142;47.990;7.846;2023-02-15T16:00:46;7.20;99.90
30336;DHT22;17142;47.990;7.846;2023-02-15T16:03:24;7.10;99.90
30336;DHT22;17142;47.990;7.846;2023-02-15T16:05:53;7.00;99.90
30336;DHT22;17142;47.990;7.846;2023-02-15T16:10:52;6.70;99.90
30336;DHT22;17142;47.990;7.846;2023-02-15T16:13:20;6.60;99.90
30336;DHT22;17142;47.990;7.846;2023-02-15T16:15:49;6.50;99.90
30336;DHT22;17142;47.990;7.846;2023-02-15T16:18:19;6.40;99.90
30336;DHT22;17142;47.990;7.846;2023-02-15T16:20:54;6.40;99.90
30336;DHT22;17142;47.990;7.846;2023-02-15T16:23:45;6.40;99.90
30336;DHT22;17142;47.990;7.846;2023-02-15T16:28:56;6.10;99.90
30336;DHT22;17142;47.990;7.846;2023-02-15T16:31:26;6.00;99.90
30336;DHT22;17142;47.990;7.846;2023-02-15T16:33:54;5.90;99.90
30336;DHT22;17142;47.990;7.846;2023-02-15T16:36:27;5.80;99.90
30336;DHT22;17142;47.990;7.846;2023-02-15T16:41:29;5.70;99.90
30336;DHT22;17142;47.990;7.846;2023-02-15T16:44:04;5.70;99.90
30336;DHT22;17142;47.990;7.846;2023-02-15T16:46:40;5.60;99.90
30336;DHT22;17142;47.990;7.846;2023-02-15T16:49:27;5.50;99.90
30336;DHT22;17142;47.990;7.846;2023-02-15T16:52:04;5.40;99.90
30336;DHT22;17142;47.990;7.846;2023-02-15T16:54:32;5.30;99.90
30336;DHT22;17142;47.990;7.846;2023-02-15T16:56:58;5.30;99.90
30336;DHT22;17142;47.990;7.846;2023-02-15T17:02:04;5.20;99.90
30336;DHT22;17142;47.990;7.846;2023-02-15T17:04:31;5.10;99.90
30336;DHT22;17142;47.990;7.846;2023-02-15T17:07:04;5.00;99.90
30336;DHT22;17142;47.990;7.846;2023-02-15T17:09:31;4.90;99.90
30336;DHT22;17142;47.990;7.846;2023-02-15T17:11:57;4.90;99.90
30336;DHT22;17142;47.990;7.846;2023-02-15T17:14:31;4.80;99.90
30336;DHT22;17142;47.990;7.846;2023-02-15T17:17:15;4.80;99.90
30336;DHT22;17142;47.990;7.846;2023-02-15T17:19:52;4.70;99.90
30336;DHT22;17142;47.990;7.846;2023-02-15T17:22:22;4.60;99.90
30336;DHT22;17142;47.990;7.846;2023-02-15T17:24:50;4.50;99.90
30336;DHT22;17142;47.990;7.846;2023-02-15T17:27:27;4.30;99.90
30336;DHT22;17142;47.990;7.846;2023-02-15T17:29:59;4.10;99.90
30336;DHT22;17142;47.990;7.846;2023-02-15T17:32:29;3.90;99.90
30336;DHT22;17142;47.990;7.846;2023-02-15T17:35:00;3.80;99.90
30336;DHT22;17142;47.990;7.846;2023-02-15T17:40:24;3.50;99.90
30336;DHT22;17142;47.990;7.846;2023-02-15T17:42:53;3.40;99.90
30336;DHT22;17142;47.990;7.846;2023-02-15T17:45:20;3.30;99.90
30336;DHT22;17142;47.990;7.846;2023-02-15T17:47:48;3.20;99.90
30336;DHT22;17142;47.990;7.846;2023-02-15T17:50:25;3.10;99.90
30336;DHT22;17142;47.990;7.846;2023-02-15T17:52:52;3.00;99.90
30336;DHT22;17142;47.990;7.846;2023-02-15T17:55:22;3.00;99.90
30336;DHT22;17142;47.990;7.846;2023-02-15T17:58:01;2.90;99.90
30336;DHT22;17142;47.990;7.846;2023-02-15T18:00:32;2.90;99.90
30336;DHT22;17142;47.990;7.846;2023-02-15T18:03:17;2.90;99.90
30336;DHT22;17142;47.990;7.846;2023-02-15T18:06:01;2.90;99.90
30336;DHT22;17142;47.990;7.846;2023-02-15T18:08:50;2.90;99.90
30336;DHT22;17142;47.990;7.846;2023-02-15T18:11:34;3.00;99.90
30336;DHT22;17142;47.990;7.846;2023-02-15T18:14:03;3.10;99.90
30336;DHT22;17142;47.990;7.846;2023-02-15T18:16:39;3.30;99.90
30336;DHT22;17142;47.990;7.846;2023-02-15T18:19:15;3.60;99.90
30336;DHT22;17142;47.990;7.846;2023-02-15T18:21:41;3.80;99.90
30336;DHT22;17142;47.990;7.846;2023-02-15T18:24:17;4.00;99.90
30336;DHT22;17142;47.990;7.846;2023-02-15T18:26:44;4.10;99.90
30336;DHT22;17142;47.990;7.846;2023-02-15T18:29:10;4.10;99.90
30336;DHT22;17142;47.990;7.846;2023-02-15T18:31:35;4.20;99.90
30336;DHT22;17142;47.990;7.846;2023-02-15T18:34:01;4.20;99.90
30336;DHT22;17142;47.990;7.846;2023-02-15T18:36:39;4.10;99.90
30336;DHT22;17142;47.990;7.846;2023-02-15T18:39:40;4.10;99.90
30336;DHT22;17142;47.990;7.846;2023-02-15T18:44:49;4.10;99.90
30336;DHT22;17142;47.990;7.846;2023-02-15T18:47:20;4.00;99.90
30336;DHT22;17142;47.990;7.846;2023-02-15T18:49:48;4.00;99.90
30336;DHT22;17142;47.990;7.846;2023-02-15T18:52:16;3.90;99.90
30336;DHT22;17142;47.990;7.846;2023-02-15T18:54:43;3.70;99.90
30336;DHT22;17142;47.990;7.846;2023-02-15T18:57:14;3.70;99.90
30336;DHT22;17142;47.990;7.846;2023-02-15T18:59:41;3.60;99.90
30336;DHT22;17142;47.990;7.846;2023-02-15T19:02:16;3.50;99.90
30336;DHT22;17142;47.990;7.846;2023-02-15T19:04:45;3.40;99.90
30336;DHT22;17142;47.990;7.846;2023-02-15T19:07:24;3.40;99.90
30336;DHT22;17142;47.990;7.846;2023-02-15T19:09:56;3.30;99.90
30336;DHT22;17142;47.990;7.846;2023-02-15T19:12:22;3.20;99.90
30336;DHT22;17142;47.990;7.846;2023-02-15T19:14:48;3.20;99.90
30336;DHT22;17142;47.990;7.846;2023-02-15T19:17:19;3.20;99.90
30336;DHT22;17142;47.990;7.846;2023-02-15T19:19:46;3.20;99.90
30336;DHT22;17142;47.990;7.846;2023-02-15T19:22:34;3.20;99.90
30336;DHT22;17142;47.990;7.846;2023-02-15T19:25:04;3.40;99.90
30336;DHT22;17142;47.990;7.846;2023-02-15T19:27:34;3.50;99.90
30336;DHT22;17142;47.990;7.846;2023-02-15T19:30:04;3.70;99.90
30336;DHT22;17142;47.990;7.846;2023-02-15T19:32:37;3.80;99.90
30336;DHT22;17142;47.990;7.846;2023-02-15T19:35:03;4.00;99.90
30336;DHT22;17142;47.990;7.846;2023-02-15T19:37:35;4.10;99.90
30336;DHT22;17142;47.990;7.846;2023-02-15T19:40:03;4.10;99.90
30336;DHT22;17142;47.990;7.846;2023-02-15T19:42:32;4.10;99.90
30336;DHT22;17142;47.990;7.846;2023-02-15T19:44:59;4.10;99.90
30336;DHT22;17142;47.990;7.846;2023-02-15T19:47:26;4.00;99.90
30336;DHT22;17142;47.990;7.846;2023-02-15T19:49:54;3.90;99.90
30336;DHT22;17142;47.990;7.846;2023-02-15T19:52:27;3.80;99.90
30336;DHT22;17142;47.990;7.846;2023-02-15T19:54:53;3.80;99.90
30336;DHT22;17142;47.990;7.846;2023-02-15T19:57:24;3.90;99.90
30336;DHT22;17142;47.990;7.846;2023-02-15T19:59:49;3.90;99.90
30336;DHT22;17142;47.990;7.846;2023-02-15T20:02:15;4.00;99.90
30336;DHT22;17142;47.990;7.846;2023-02-15T20:04:44;4.00;99.90
30336;DHT22;17142;47.990;7.846;2023-02-15T20:07:21;4.10;99.90
30336;DHT22;17142;47.990;7.846;2023-02-15T20:09:48;4.00;99.90
30336;DHT22;17142;47.990;7.846;2023-02-15T20:12:20;4.00;99.90
30336;DHT22;17142;47.990;7.846;2023-02-15T20:14:49;4.00;99.90
30336;DHT22;17142;47.990;7.846;2023-02-15T20:17:17;4.00;99.90
30336;DHT22;17142;47.990;7.846;2023-02-15T20:19:45;4.10;99.90
30336;DHT22;17142;47.990;7.846;2023-02-15T20:22:21;4.00;99.90
30336;DHT22;17142;47.990;7.846;2023-02-15T20:24:47;3.90;99.90
30336;DHT22;17142;47.990;7.846;2023-02-15T20:27:15;3.80;99.90
30336;DHT22;17142;47.990;7.846;2023-02-15T20:29:44;4.00;99.90
30336;DHT22;17142;47.990;7.846;2023-02-15T20:32:10;4.40;99.90
30336;DHT22;17142;47.990;7.846;2023-02-15T20:34:36;4.40;99.90
30336;DHT22;17142;47.990;7.846;2023-02-15T20:37:02;4.20;99.90
30336;DHT22;17142;47.990;7.846;2023-02-15T20:39:28;3.90;99.90
30336;DHT22;17142;47.990;7.846;2023-02-15T20:41:57;3.70;99.90
30336;DHT22;17142;47.990;7.846;2023-02-15T20:44:28;3.50;99.90
30336;DHT22;17142;47.990;7.846;2023-02-15T20:46:57;3.40;99.90
30336;DHT22;17142;47.990;7.846;2023-02-15T20:49:24;3.40;99.90
30336;DHT22;17142;47.990;7.846;2023-02-15T20:51:51;3.50;99.90
30336;DHT22;17142;47.990;7.846;2023-02-15T20:54:23;3.50;99.90
30336;DHT22;17142;47.990;7.846;2023-02-15T20:56:50;3.60;99.90
30336;DHT22;17142;47.990;7.846;2023-02-15T20:59:31;3.60;99.90
30336;DHT22;17142;47.990;7.846;2023-02-15T21:02:17;3.50;99.90
30336;DHT22;17142;47.990;7.846;2023-02-15T21:04:44;3.50;99.90
30336;DHT22;17142;47.990;7.846;2023-02-15T21:07:19;3.40;99.90
30336;DHT22;17142;47.990;7.846;2023-02-15T21:09:50;3.30;99.90
30336;DHT22;17142;47.990;7.846;2023-02-15T21:12:18;3.30;99.90
30336;DHT22;17142;47.990;7.846;2023-02-15T21:14:49;3.20;99.90
30336;DHT22;17142;47.990;7.846;2023-02-15T21:17:15;3.10;99.90
30336;DHT22;17142;47.990;7.846;2023-02-15T21:19:43;3.10;99.90
30336;DHT22;17142;47.990;7.846;2023-02-15T21:22:13;3.10;99.90
30336;DHT22;17142;47.990;7.846;2023-02-15T21:24:51;3.10;99.90
30336;DHT22;17142;47.990;7.846;2023-02-15T21:27:19;3.00;99.90
30336;DHT22;17142;47.990;7.846;2023-02-15T21:29:45;2.90;99.90
30336;DHT22;17142;47.990;7.846;2023-02-15T21:32:13;2.80;99.90
30336;DHT22;17142;47.990;7.846;2023-02-15T21:34:39;2.80;99.90
30336;DHT22;17142;47.990;7.846;2023-02-15T21:37:29;2.80;99.90
30336;DHT22;17142;47.990;7.846;2023-02-15T21:39:55;2.80;99.90
30336;DHT22;17142;47.990;7.846;2023-02-15T21:42:21;2.80;99.90
30336;DHT22;17142;47.990;7.846;2023-02-15T21:45:13;2.80;99.90
30336;DHT22;17142;47.990;7.846;2023-02-15T21:48:00;2.90;99.90
30336;DHT22;17142;47.990;7.846;2023-02-15T21:50:26;3.20;99.90
30336;DHT22;17142;47.990;7.846;2023-02-15T21:55:58;3.40;99.90
30336;DHT22;17142;47.990;7.846;2023-02-15T21:58:31;3.30;99.90
30336;DHT22;17142;47.990;7.846;2023-02-15T22:00:58;3.30;99.90
30336;DHT22;17142;47.990;7.846;2023-02-15T22:03:30;3.30;99.90
30336;DHT22;17142;47.990;7.846;2023-02-15T22:05:56;3.20;99.90
30336;DHT22;17142;47.990;7.846;2023-02-15T22:08:22;3.20;99.90
30336;DHT22;17142;47.990;7.846;2023-02-15T22:10:47;3.10;99.90
30336;DHT22;17142;47.990;7.846;2023-02-15T22:13:24;3.00;99.90
30336;DHT22;17142;47.990;7.846;2023-02-15T22:15:50;2.90;99.90
30336;DHT22;17142;47.990;7.846;2023-02-15T22:18:24;2.80;99.90
30336;DHT22;17142;47.990;7.846;2023-02-15T22:20:53;2.70;99.90
30336;DHT22;17142;47.990;7.846;2023-02-15T22:23:22;2.60;99.90
30336;DHT22;17142;47.990;7.846;2023-02-15T22:25:56;2.60;99.90
30336;DHT22;17142;47.990;7.846;2023-02-15T22:28:42;2.60;99.90
30336;DHT22;17142;47.990;7.846;2023-02-15T22:31:14;2.70;99.90
30336;DHT22;17142;47.990;7.846;2023-02-15T22:33:40;2.80;99.90
30336;DHT22;17142;47.990;7.846;2023-02-15T22:36:23;2.80;99.90
30336;DHT22;17142;47.990;7.846;2023-02-15T22:38:50;2.70;99.90
30336;DHT22;17142;47.990;7.846;2023-02-15T22:41:16;2.60;99.90
30336;DHT22;17142;47.990;7.846;2023-02-15T22:43:43;2.50;99.90
30336;DHT22;17142;47.990;7.846;2023-02-15T22:46:18;2.50;99.90
30336;DHT22;17142;47.990;7.846;2023-02-15T22:48:45;2.40;99.90
30336;DHT22;17142;47.990;7.846;2023-02-15T22:51:20;2.40;99.90
30336;DHT22;17142;47.990;7.846;2023-02-15T22:53:46;2.50;99.90
30336;DHT22;17142;47.990;7.846;2023-02-15T22:56:26;2.70;99.90
30336;DHT22;17142;47.990;7.846;2023-02-15T22:59:00;2.60;99.90
30336;DHT22;17142;47.990;7.846;2023-02-15T23:01:31;2.50;99.90
30336;DHT22;17142;47.990;7.846;2023-02-15T23:03:57;2.50;99.90
30336;DHT22;17142;47.990;7.846;2023-02-15T23:06:23;2.40;99.90
30336;DHT22;17142;47.990;7.846;2023-02-15T23:08:48;2.40;99.90
30336;DHT22;17142;47.990;7.846;2023-02-15T23:11:14;2.50;99.90
30336;DHT22;17142;47.990;7.846;2023-02-15T23:13:40;2.50;99.90
30336;DHT22;17142;47.990;7.846;2023-02-15T23:16:09;2.60;99.90
30336;DHT22;17142;47.990;7.846;2023-02-15T23:18:42;2.80;99.90
30336;DHT22;17142;47.990;7.846;2023-02-15T23:23:41;3.00;99.90
